createdAt,value
2018-03-15T00:01:04.763Z,96.32
2018-03-15T00:03:35.787Z,97.37
2018-03-15T00:06:12.822Z,96.98
2018-03-15T00:08:50.683Z,96.28
2018-03-15T00:11:19.228Z,96.32
2018-03-15T00:13:59.848Z,95.81
2018-03-15T00:16:28.389Z,96.25
2018-03-15T00:18:58.838Z,95.82
2018-03-15T00:21:27.371Z,96.38
2018-03-15T00:23:55.885Z,95.73
2018-03-15T00:26:24.386Z,96.40
2018-03-15T00:29:13.694Z,96.30
2018-03-15T00:31:53.098Z,96.70
2018-03-15T00:34:21.638Z,96.40
2018-03-15T00:36:50.137Z,97.48
2018-03-15T00:39:18.655Z,97.53
2018-03-15T00:42:09.114Z,97.51
2018-03-15T00:44:39.660Z,96.70
2018-03-15T00:47:12.042Z,97.09
2018-03-15T00:49:59.125Z,97.02
2018-03-15T00:52:27.630Z,97.36
2018-03-15T00:55:00.856Z,96.19
2018-03-15T00:57:29.368Z,95.47
2018-03-15T00:59:57.881Z,94.85
2018-03-15T01:02:26.513Z,94.92
2018-03-15T01:05:02.669Z,95.28
2018-03-15T01:07:31.185Z,96.69
2018-03-15T01:09:59.718Z,97.35
2018-03-15T01:12:28.234Z,96.77
2018-03-15T01:14:56.750Z,97.44
2018-03-15T01:17:25.266Z,98.02
2018-03-15T01:20:04.346Z,97.67
2018-03-15T01:22:32.932Z,97.12
2018-03-15T01:25:01.436Z,97.31
2018-03-15T01:27:29.955Z,96.44
2018-03-15T01:30:04.105Z,95.99
2018-03-15T01:32:33.521Z,95.65
2018-03-15T01:35:02.033Z,95.75
2018-03-15T01:37:30.545Z,95.84
2018-03-15T01:39:59.058Z,96.40
2018-03-15T01:42:27.572Z,95.76
2018-03-15T01:44:56.084Z,95.41
2018-03-15T01:47:24.598Z,95.75
2018-03-15T01:50:01.613Z,95.06
2018-03-15T01:52:30.141Z,95.83
2018-03-15T01:55:12.646Z,95.93
2018-03-15T01:57:41.204Z,94.57
2018-03-15T02:00:09.709Z,95.48
2018-03-15T02:02:38.221Z,95.96
2018-03-15T02:05:10.484Z,95.21
2018-03-15T02:07:39.007Z,95.80
2018-03-15T02:10:07.521Z,96.33
2018-03-15T02:12:36.054Z,95.38
2018-03-15T02:15:12.246Z,95.68
2018-03-15T02:17:40.772Z,95.69
2018-03-15T02:20:09.312Z,95.63
2018-03-15T02:22:38.746Z,96.06
2018-03-15T02:25:07.269Z,95.94
2018-03-15T02:27:39.458Z,95.16
2018-03-15T02:30:09.924Z,95.34
2018-03-15T02:32:38.442Z,94.15
2018-03-15T02:35:06.971Z,94.14
2018-03-15T02:37:39.257Z,94.61
2018-03-15T02:40:12.262Z,94.70
2018-03-15T02:42:40.845Z,94.51
2018-03-15T02:45:09.345Z,94.92
2018-03-15T02:47:38.755Z,95.16
2018-03-15T02:50:07.269Z,95.83
2018-03-15T02:52:35.779Z,96.67
2018-03-15T02:55:08.372Z,96.57
2018-03-15T02:57:38.762Z,97.14
2018-03-15T03:00:08.247Z,96.87
2018-03-15T03:02:36.773Z,95.89
2018-03-15T03:05:21.210Z,95.72
2018-03-15T03:07:49.732Z,95.85
2018-03-15T03:10:18.274Z,95.49
2018-03-15T03:12:46.780Z,95.56
2018-03-15T03:15:36.855Z,95.72
2018-03-15T03:18:09.099Z,95.08
2018-03-15T03:20:37.610Z,95.25
2018-03-15T03:23:09.858Z,95.73
2018-03-15T03:25:38.381Z,95.86
2018-03-15T03:28:33.591Z,95.82
2018-03-15T03:31:02.102Z,94.27
2018-03-15T03:33:30.616Z,93.58
2018-03-15T03:35:59.209Z,93.85
2018-03-15T03:38:27.763Z,94.00
2018-03-15T03:40:56.270Z,93.47
2018-03-15T03:43:30.108Z,93.67
2018-03-15T03:45:59.540Z,92.89
2018-03-15T03:48:39.181Z,93.19
2018-03-15T03:51:09.637Z,93.41
2018-03-15T03:53:38.387Z,94.04
2018-03-15T03:56:14.991Z,94.72
2018-03-15T03:58:43.514Z,94.98
2018-03-15T04:01:12.029Z,94.89
2018-03-15T04:03:40.683Z,95.14
2018-03-15T04:06:09.209Z,94.91
2018-03-15T04:08:38.618Z,94.63
2018-03-15T04:11:30.277Z,95.29
2018-03-15T04:14:37.415Z,95.47
2018-03-15T04:17:10.105Z,95.48
2018-03-15T04:19:38.616Z,94.95
2018-03-15T04:22:07.125Z,94.14
2018-03-15T04:24:35.673Z,95.15
2018-03-15T04:27:04.192Z,94.81
2018-03-15T04:29:32.705Z,94.81
2018-03-15T04:32:06.343Z,95.55
2018-03-15T04:34:36.772Z,95.69
2018-03-15T04:37:05.301Z,96.06
2018-03-15T04:39:33.810Z,95.37
2018-03-15T04:42:04.276Z,95.83
2018-03-15T04:44:38.407Z,96.16
2018-03-15T04:47:06.895Z,96.55
2018-03-15T04:49:44.372Z,96.73
2018-03-15T04:52:12.882Z,96.26
2018-03-15T04:54:41.393Z,95.56
2018-03-15T04:57:09.969Z,95.25
2018-03-15T04:59:40.453Z,95.31
2018-03-15T05:02:08.990Z,94.52
2018-03-15T05:04:37.524Z,94.73
2018-03-15T05:07:06.044Z,94.72
2018-03-15T05:09:36.545Z,94.57
2018-03-15T05:12:05.065Z,94.03
2018-03-15T05:14:33.575Z,94.29
2018-03-15T05:17:02.984Z,95.35
2018-03-15T05:19:39.934Z,95.84
2018-03-15T05:22:08.446Z,96.12
2018-03-15T05:24:37.877Z,96.01
2018-03-15T05:27:06.394Z,96.12
2018-03-15T05:29:34.997Z,95.93
2018-03-15T05:32:03.495Z,95.73
2018-03-15T05:34:32.014Z,95.78
2018-03-15T05:37:00.550Z,95.90
2018-03-15T05:39:29.074Z,95.64
2018-03-15T05:41:57.615Z,96.05
2018-03-15T05:44:26.141Z,96.06
2018-03-15T05:46:54.644Z,95.01
2018-03-15T05:49:23.177Z,94.43
2018-03-15T05:51:52.686Z,94.77
2018-03-15T05:54:21.211Z,94.66
2018-03-15T05:56:49.720Z,95.25
2018-03-15T05:59:18.292Z,95.72
2018-03-15T06:01:46.824Z,95.38
2018-03-15T06:04:15.342Z,95.20
2018-03-15T06:06:43.857Z,95.01
2018-03-15T06:09:12.376Z,94.15
2018-03-15T06:11:46.358Z,94.63
2018-03-15T06:14:14.878Z,94.52
2018-03-15T06:16:57.355Z,93.94
2018-03-15T06:19:31.478Z,93.60
2018-03-15T06:21:59.993Z,92.80
2018-03-15T06:24:30.538Z,92.56
2018-03-15T06:26:59.038Z,92.36
2018-03-15T06:29:53.837Z,92.22
2018-03-15T06:32:22.367Z,91.57
2018-03-15T06:35:04.387Z,91.91
2018-03-15T06:37:32.913Z,92.26
2018-03-15T06:40:04.533Z,92.14
2018-03-15T06:43:04.197Z,91.10
2018-03-15T06:45:36.804Z,91.16
2018-03-15T06:48:05.329Z,90.54
2018-03-15T06:50:34.839Z,89.69
2018-03-15T06:53:03.353Z,89.28
2018-03-15T06:55:33.817Z,88.23
2018-03-15T06:58:02.327Z,87.79
2018-03-15T07:00:31.813Z,88.03
2018-03-15T07:03:00.322Z,86.53
2018-03-15T07:05:30.767Z,85.77
2018-03-15T07:07:59.270Z,83.78
2018-03-15T07:10:27.817Z,85.51
2018-03-15T07:12:58.229Z,84.37
2018-03-15T07:15:28.654Z,83.53
2018-03-15T07:17:57.916Z,81.62
2018-03-15T07:20:29.656Z,82.47
2018-03-15T07:22:58.181Z,83.23
2018-03-15T07:25:26.690Z,83.03
2018-03-15T07:27:58.883Z,80.78
2018-03-15T07:30:27.427Z,80.51
2018-03-15T07:32:55.923Z,81.84
2018-03-15T07:35:24.441Z,82.67
2018-03-15T07:37:52.969Z,84.12
2018-03-15T07:40:21.498Z,84.40
2018-03-15T07:42:50.005Z,83.35
2018-03-15T07:45:18.529Z,83.14
2018-03-15T07:47:47.063Z,82.79
2018-03-15T07:50:15.574Z,82.14
2018-03-15T07:52:44.096Z,81.75
2018-03-15T07:55:12.626Z,80.90
2018-03-15T07:57:41.146Z,80.60
2018-03-15T08:00:09.667Z,80.39
2018-03-15T08:02:38.189Z,78.25
2018-03-15T08:05:06.734Z,77.64
2018-03-15T08:07:35.265Z,75.89
2018-03-15T08:10:03.780Z,74.55
2018-03-15T08:12:32.284Z,74.17
2018-03-15T08:15:01.802Z,70.76
2018-03-15T08:17:30.347Z,71.62
2018-03-15T08:19:59.822Z,71.82
2018-03-15T08:22:28.359Z,71.22
2018-03-15T08:24:57.834Z,70.68
2018-03-15T08:27:31.776Z,68.53
2018-03-15T08:30:00.318Z,71.37
2018-03-15T08:32:28.792Z,71.38
2018-03-15T08:34:58.332Z,71.14
2018-03-15T08:37:31.751Z,71.65
2018-03-15T08:40:00.492Z,69.69
2018-03-15T08:42:29.000Z,68.18
2018-03-15T08:45:01.736Z,68.22
2018-03-15T08:47:30.292Z,68.84
2018-03-15T08:49:59.812Z,69.48
2018-03-15T08:52:30.032Z,66.91
2018-03-15T08:54:58.535Z,66.04
2018-03-15T08:57:27.046Z,64.30
2018-03-15T09:00:02.169Z,64.73
2018-03-15T09:02:30.742Z,63.38
2018-03-15T09:04:59.214Z,60.46
2018-03-15T09:07:29.991Z,58.15
2018-03-15T09:09:59.810Z,58.21
2018-03-15T09:12:28.332Z,56.05
2018-03-15T09:14:58.722Z,58.32
2018-03-15T09:17:27.238Z,53.91
2018-03-15T09:19:59.617Z,54.37
2018-03-15T09:22:30.024Z,52.88
2018-03-15T09:24:58.524Z,50.17
2018-03-15T09:27:27.049Z,54.12
2018-03-15T09:29:57.716Z,51.79
2018-03-15T09:32:26.235Z,50.61
2018-03-15T09:34:54.812Z,52.00
2018-03-15T09:37:26.459Z,53.34
2018-03-15T09:39:54.987Z,51.20
2018-03-15T09:42:23.509Z,49.54
2018-03-15T09:44:53.956Z,52.34
2018-03-15T09:47:22.502Z,55.39
2018-03-15T09:49:51.041Z,53.87
2018-03-15T09:52:19.589Z,54.20
2018-03-15T09:54:51.367Z,52.15
2018-03-15T09:57:20.836Z,53.50
2018-03-15T09:59:49.364Z,49.41
2018-03-15T10:02:18.973Z,53.26
2018-03-15T10:04:49.462Z,51.54
2018-03-15T10:07:17.976Z,50.60
2018-03-15T10:09:47.854Z,50.60
2018-03-15T10:12:19.946Z,50.93
2018-03-15T10:14:48.466Z,50.61
2018-03-15T10:17:18.824Z,47.36
2018-03-15T10:19:49.257Z,49.93
2018-03-15T10:22:18.571Z,45.11
2018-03-15T10:24:52.214Z,46.37
2018-03-15T10:27:20.765Z,45.96
2018-03-15T10:29:49.524Z,40.87
2018-03-15T10:32:18.120Z,44.43
2018-03-15T10:34:47.144Z,43.62
2018-03-15T10:37:18.480Z,45.81
2018-03-15T10:39:48.983Z,39.86
2018-03-15T10:42:17.514Z,42.20
2018-03-15T10:44:46.042Z,41.47
2018-03-15T10:47:14.570Z,41.73
2018-03-15T10:49:44.216Z,40.83
2018-03-15T10:52:12.733Z,39.45
2018-03-15T10:54:42.347Z,39.80
2018-03-15T10:57:14.055Z,37.02
2018-03-15T10:59:42.603Z,35.61
2018-03-15T11:05:05.063Z,31.73
2018-03-15T11:07:44.570Z,33.21
2018-03-15T11:10:14.284Z,33.23
2018-03-15T11:12:43.599Z,34.53
2018-03-15T11:15:13.473Z,33.26
2018-03-15T11:17:42.019Z,29.25
2018-03-15T11:20:13.313Z,29.14
2018-03-15T11:22:43.324Z,27.85
2018-03-15T11:25:11.838Z,27.59
2018-03-15T11:27:42.158Z,29.98
2018-03-15T11:30:12.455Z,29.95
2018-03-15T11:32:41.073Z,29.32
2018-03-15T11:35:11.462Z,26.75
2018-03-15T11:37:40.034Z,28.22
2018-03-15T11:40:08.578Z,27.41
2018-03-15T11:42:39.317Z,27.04
2018-03-15T11:45:08.977Z,26.18
2018-03-15T11:47:41.494Z,28.39
2018-03-15T11:50:11.782Z,26.05
2018-03-15T11:52:40.605Z,28.01
2018-03-15T11:55:09.181Z,27.25
2018-03-15T11:57:40.034Z,29.07
2018-03-15T12:00:08.706Z,26.92
2018-03-15T12:02:39.151Z,26.54
2018-03-15T12:05:10.235Z,29.03
2018-03-15T12:07:39.001Z,31.68
2018-03-15T12:10:07.522Z,32.14
2018-03-15T12:12:39.317Z,30.79
2018-03-15T12:15:10.102Z,27.88
2018-03-15T12:17:38.638Z,28.82
2018-03-15T12:20:09.631Z,25.10
2018-03-15T12:22:38.145Z,26.69
2018-03-15T12:25:07.063Z,29.51
2018-03-15T12:27:37.769Z,33.30
2018-03-15T12:30:06.294Z,30.45
2018-03-15T12:32:37.102Z,27.38
2018-03-15T12:35:07.195Z,28.41
2018-03-15T12:37:35.700Z,29.29
2018-03-15T12:40:08.853Z,28.87
2018-03-15T12:42:38.225Z,26.15
2018-03-15T12:45:06.760Z,24.18
2018-03-15T12:47:35.274Z,23.34
2018-03-15T12:50:03.816Z,26.86
2018-03-15T12:52:32.343Z,26.79
2018-03-15T12:55:00.924Z,29.86
2018-03-15T12:57:29.501Z,27.30
2018-03-15T12:59:59.910Z,30.67
2018-03-15T13:02:28.441Z,31.55
2018-03-15T13:04:56.998Z,33.46
2018-03-15T13:07:25.518Z,33.92
2018-03-15T13:09:54.990Z,34.38
2018-03-15T13:12:23.525Z,37.62
2018-03-15T13:14:52.062Z,37.42
2018-03-15T13:17:20.588Z,38.90
2018-03-15T13:19:50.050Z,41.71
2018-03-15T13:22:18.579Z,41.58
2018-03-15T13:24:49.090Z,44.31
2018-03-15T13:27:17.617Z,43.92
2018-03-15T13:29:46.182Z,45.34
2018-03-15T13:32:14.698Z,45.75
2018-03-15T13:34:43.231Z,44.67
2018-03-15T13:37:11.770Z,43.10
2018-03-15T13:39:40.286Z,45.90
2018-03-15T13:42:08.814Z,44.89
2018-03-15T13:44:37.355Z,45.86
2018-03-15T13:47:05.877Z,45.71
2018-03-15T13:49:34.416Z,46.89
2018-03-15T13:52:02.989Z,43.92
2018-03-15T13:54:33.374Z,44.97
2018-03-15T13:57:01.893Z,46.85
2018-03-15T13:59:30.452Z,46.65
2018-03-15T14:01:58.987Z,47.42
2018-03-15T14:04:27.562Z,47.03
2018-03-15T14:06:56.156Z,48.12
2018-03-15T14:09:24.687Z,50.31
2018-03-15T14:11:53.230Z,50.00
2018-03-15T14:14:21.757Z,51.17
2018-03-15T14:16:50.278Z,51.04
2018-03-15T14:19:22.414Z,51.82
2018-03-15T14:21:50.947Z,52.66
2018-03-15T14:24:19.479Z,51.24
2018-03-15T14:26:48.017Z,51.79
2018-03-15T14:29:16.956Z,52.08
2018-03-15T14:31:46.174Z,52.60
2018-03-15T14:34:15.602Z,51.98
2018-03-15T14:36:44.203Z,51.37
2018-03-15T14:39:16.637Z,52.64
2018-03-15T14:41:49.079Z,52.75
2018-03-15T14:44:27.430Z,52.88
2018-03-15T14:46:56.568Z,53.14
2018-03-15T14:49:26.002Z,53.81
2018-03-15T14:51:55.564Z,54.27
2018-03-15T14:54:26.524Z,53.67
2018-03-15T14:56:59.401Z,53.79
2018-03-15T14:59:30.518Z,54.52
2018-03-15T15:01:59.026Z,55.24
2018-03-15T15:04:27.562Z,54.76
2018-03-15T15:06:57.113Z,54.81
2018-03-15T15:09:26.102Z,54.57
2018-03-15T15:11:54.990Z,56.35
2018-03-15T15:14:23.505Z,56.04
2018-03-15T15:16:52.103Z,55.75
2018-03-15T15:19:20.596Z,57.73
2018-03-15T15:21:49.151Z,58.27
2018-03-15T15:24:25.395Z,58.63
2018-03-15T15:26:53.933Z,58.05
2018-03-15T15:29:24.440Z,59.31
2018-03-15T15:31:54.485Z,58.38
2018-03-15T15:34:22.998Z,59.20
2018-03-15T15:36:51.538Z,58.96
2018-03-15T15:39:22.252Z,59.74
2018-03-15T15:41:50.758Z,60.13
2018-03-15T15:44:22.886Z,59.76
2018-03-15T15:46:51.459Z,59.93
2018-03-15T15:49:20.094Z,59.63
2018-03-15T15:51:48.614Z,60.43
2018-03-15T15:54:17.134Z,60.50
2018-03-15T15:56:49.198Z,61.46
2018-03-15T16:01:43.710Z,60.00
2018-03-15T16:06:53.562Z,61.81
2018-03-15T16:09:28.614Z,61.01
2018-03-15T16:11:57.952Z,63.03
2018-03-15T16:14:32.288Z,62.31
2018-03-15T16:17:04.818Z,62.52
2018-03-15T16:22:14.780Z,63.49
2018-03-15T16:24:48.186Z,63.40
2018-03-15T16:27:17.296Z,63.38
2018-03-15T16:29:50.203Z,63.51
2018-03-15T16:32:22.992Z,64.80
2018-03-15T16:34:52.073Z,64.69
2018-03-15T16:37:29.648Z,65.76
2018-03-15T16:42:34.493Z,63.89
2018-03-15T16:45:07.107Z,65.44
2018-03-15T16:47:36.168Z,63.23
2018-03-15T16:50:05.219Z,64.65
2018-03-15T16:52:34.404Z,64.69
2018-03-15T16:55:12.723Z,66.03
2018-03-15T16:57:41.773Z,66.93
2018-03-15T17:02:46.108Z,66.96
2018-03-15T17:05:18.323Z,66.42
2018-03-15T17:07:48.041Z,66.83
2018-03-15T17:10:17.093Z,67.24
2018-03-15T17:12:47.060Z,66.94
2018-03-15T17:15:31.076Z,67.20
2018-03-15T17:20:42.484Z,67.00
2018-03-15T17:23:11.540Z,67.05
2018-03-15T17:25:40.658Z,67.25
2018-03-15T17:28:10.207Z,67.38
2018-03-15T17:30:39.519Z,67.04
2018-03-15T17:33:09.523Z,68.01
2018-03-15T17:35:38.571Z,67.33
2018-03-15T17:38:07.794Z,67.59
2018-03-15T17:40:36.844Z,68.61
2018-03-15T17:43:11.502Z,68.86
2018-03-15T17:45:40.560Z,69.63
2018-03-15T17:48:09.762Z,68.82
2018-03-15T17:50:38.816Z,70.15
2018-03-15T17:55:44.237Z,68.22
2018-03-15T17:58:13.518Z,69.83
2018-03-15T18:00:42.604Z,71.11
2018-03-15T18:05:53.355Z,70.22
2018-03-15T18:08:23.313Z,71.77
2018-03-15T18:10:52.586Z,71.78
2018-03-15T18:13:21.728Z,71.41
2018-03-15T18:16:06.153Z,71.29
2018-03-15T18:18:35.230Z,71.65
2018-03-15T18:21:12.172Z,71.47
2018-03-15T18:23:41.518Z,72.16
2018-03-15T18:26:10.674Z,70.77
2018-03-15T18:28:40.024Z,70.39
2018-03-15T18:31:13.483Z,70.62
2018-03-15T18:33:42.522Z,70.19
2018-03-15T18:36:16.274Z,72.15
2018-03-15T18:38:45.319Z,71.23
2018-03-15T18:41:27.068Z,71.25
2018-03-15T18:43:56.424Z,70.94
2018-03-15T18:46:25.469Z,70.25
2018-03-15T18:48:54.524Z,70.14
2018-03-15T18:51:49.515Z,71.71
2018-03-15T18:56:53.920Z,71.28
2018-03-15T18:59:33.542Z,71.41
2018-03-15T19:02:02.778Z,71.39
2018-03-15T19:07:08.235Z,68.51
2018-03-15T19:09:44.976Z,69.21
2018-03-15T19:12:14.051Z,71.19
2018-03-15T19:14:43.315Z,71.16
2018-03-15T19:17:12.376Z,71.17
2018-03-15T19:19:41.452Z,70.72
2018-03-15T19:22:10.652Z,71.89
2018-03-15T19:24:39.699Z,70.12
2018-03-15T19:27:08.759Z,68.54
2018-03-15T19:29:37.813Z,69.12
2018-03-15T19:32:07.017Z,69.04
2018-03-15T19:34:43.559Z,68.97
2018-03-15T19:37:12.815Z,71.16
2018-03-15T19:39:46.970Z,71.31
2018-03-15T19:42:26.144Z,71.02
2018-03-15T19:44:55.322Z,71.74
2018-03-15T19:49:59.580Z,69.05
2018-03-15T19:52:28.659Z,70.37
2018-03-15T19:54:57.684Z,69.14
2018-03-15T19:57:28.680Z,70.06
2018-03-15T19:59:58.483Z,70.29
2018-03-15T20:02:27.746Z,71.17
2018-03-15T20:04:57.015Z,72.48
2018-03-15T20:07:26.067Z,72.49
2018-03-15T20:09:55.229Z,73.30
2018-03-15T20:12:24.279Z,72.65
2018-03-15T20:14:56.922Z,71.08
2018-03-15T20:17:26.017Z,71.85
2018-03-15T20:20:07.116Z,71.01
2018-03-15T20:22:41.485Z,72.35
2018-03-15T20:25:11.823Z,72.25
2018-03-15T20:27:46.271Z,74.68
2018-03-15T20:30:18.752Z,77.24
2018-03-15T20:32:53.346Z,75.94
2018-03-15T20:37:57.581Z,73.16
2018-03-15T20:40:40.323Z,74.31
2018-03-15T20:43:12.848Z,76.23
2018-03-15T20:45:47.257Z,73.70
2018-03-15T20:48:22.163Z,74.21
2018-03-15T20:50:51.227Z,73.68
2018-03-15T20:55:56.527Z,74.71
2018-03-15T20:58:27.511Z,75.66
2018-03-15T21:00:56.784Z,76.39
2018-03-15T21:06:03.295Z,74.24
2018-03-15T21:08:35.884Z,76.11
2018-03-15T21:11:05.888Z,73.60
2018-03-15T21:13:34.938Z,74.46
2018-03-15T21:16:07.640Z,75.09
2018-03-15T21:18:36.687Z,76.26
2018-03-15T21:21:09.540Z,73.93
2018-03-15T21:23:38.608Z,75.41
2018-03-15T21:26:09.572Z,75.76
2018-03-15T21:31:14.246Z,72.61
2018-03-15T21:33:43.953Z,73.95
2018-03-15T21:36:13.992Z,74.02
2018-03-15T21:38:44.273Z,73.21
2018-03-15T21:41:14.978Z,74.05
2018-03-15T21:43:54.135Z,73.91
2018-03-15T21:46:23.180Z,74.50
2018-03-15T21:48:59.909Z,73.36
2018-03-15T21:51:28.957Z,73.22
2018-03-15T21:54:11.375Z,72.23
2018-03-15T21:59:15.613Z,70.65
2018-03-15T22:01:48.259Z,71.38
2018-03-15T22:04:40.400Z,71.24
2018-03-15T22:07:09.430Z,71.31
2018-03-15T22:09:44.116Z,69.99
2018-03-15T22:12:13.148Z,70.31
2018-03-15T22:14:42.271Z,70.19
2018-03-15T22:17:12.355Z,69.99
2018-03-15T22:19:41.402Z,69.37
2018-03-15T22:22:10.447Z,69.62
2018-03-15T22:24:39.665Z,69.75
2018-03-15T22:29:43.900Z,69.83
2018-03-15T22:34:48.163Z,68.72
2018-03-15T22:37:26.823Z,68.73
2018-03-15T22:45:09.536Z,69.13
2018-03-15T22:47:38.568Z,69.59
2018-03-15T22:50:17.228Z,70.61
2018-03-15T22:52:46.277Z,71.90
2018-03-15T22:55:15.324Z,72.45
2018-03-15T22:57:44.411Z,73.63
2018-03-15T23:00:13.557Z,73.71
2018-03-15T23:02:42.606Z,75.33
2018-03-15T23:05:12.614Z,74.65
2018-03-15T23:07:41.674Z,75.76
2018-03-15T23:10:14.908Z,75.65
2018-03-15T23:12:44.080Z,76.59
2018-03-15T23:17:48.427Z,78.18
2018-03-15T23:20:32.120Z,80.26
2018-03-15T23:23:03.439Z,82.16
2018-03-15T23:25:32.568Z,81.94
2018-03-15T23:30:36.799Z,84.00
2018-03-15T23:35:41.082Z,85.28
2018-03-15T23:38:24.932Z,85.51
2018-03-15T23:40:54.880Z,86.29
2018-03-15T23:43:32.047Z,86.97
2018-03-15T23:46:01.200Z,87.75
2018-03-15T23:48:30.248Z,87.29
2018-03-15T23:50:59.321Z,87.70
2018-03-15T23:56:03.610Z,89.48
2018-03-15T23:58:33.572Z,89.46
